Houmet Essouk, Tunisia
Current Conditions -  °F | °C
As of 10:30 AM on Sunday 26 Oct 2014 (Local Time) from DTTJ Reporting Station
Clear Clear  
Wind Chill: 77°   Ceiling: Unl
Heat Index: 79°   Visibility: 6mi
Dew Point: 59°   Wind: 12mph
Humidity: 54%   Direction: 290°WNW
Pressure: 30.12"   Gusts: NA
Location:  33.87°N, 10.86°E
Report Text: DTTJ 260930Z 29010KT CAVOK 25/15 Q1020 NOSIG
Loading
Personal Weather Stations






























Interactive Weather Map
Tropical Storm Tracking
New forecast layout! Learn more

10-Day Weather Forecast

Advertisements
Track Severe Weather on mobile